createdAt,value
2022-08-17T00:01:02.848Z,0.70
2022-08-17T00:04:17.840Z,0.80
2022-08-17T00:07:01.605Z,0.70
2022-08-17T00:09:48.750Z,0.70
2022-08-17T00:12:41.535Z,0.80
2022-08-17T00:15:12.425Z,0.70
2022-08-17T00:19:06.865Z,0.80
2022-08-17T00:22:32.032Z,0.60
2022-08-17T00:25:48.601Z,0.80
2022-08-17T00:28:45.132Z,0.80
2022-08-17T00:31:04.516Z,0.60
2022-08-17T00:34:12.881Z,0.80
2022-08-17T00:36:46.163Z,0.70
2022-08-17T00:39:52.633Z,0.50
2022-08-17T00:43:15.591Z,0.60
2022-08-17T00:46:13.361Z,0.60
2022-08-17T00:48:43.787Z,0.70
2022-08-17T00:52:11.793Z,0.50
2022-08-17T00:55:03.491Z,0.60
2022-08-17T00:58:01.659Z,0.50
2022-08-17T01:00:54.653Z,0.60
2022-08-17T01:03:47.555Z,0.90
2022-08-17T01:06:57.452Z,0.60
2022-08-17T01:10:58.954Z,0.50
2022-08-17T01:13:52.427Z,0.50
2022-08-17T01:17:04.750Z,0.70
2022-08-17T01:19:47.148Z,0.50
2022-08-17T01:22:47.240Z,0.60
2022-08-17T01:25:41.152Z,0.50
2022-08-17T01:27:55.671Z,0.50
2022-08-17T01:30:57.718Z,0.70
2022-08-17T01:33:18.323Z,0.50
2022-08-17T01:36:23.911Z,0.90
2022-08-17T01:39:23.546Z,0.40
2022-08-17T01:42:40.661Z,0.50
2022-08-17T01:45:42.816Z,0.50
2022-08-17T01:48:43.780Z,0.60
2022-08-17T01:51:45.440Z,0.80
2022-08-17T01:54:43.715Z,0.50
2022-08-17T01:57:16.096Z,0.80
2022-08-17T02:00:14.765Z,0.70
2022-08-17T02:03:24.546Z,0.70
2022-08-17T02:05:54.360Z,0.60
2022-08-17T02:08:38.911Z,0.60
2022-08-17T02:12:38.830Z,0.70
2022-08-17T02:15:22.648Z,0.80
2022-08-17T02:17:42.202Z,0.50
2022-08-17T02:20:42.324Z,0.70
2022-08-17T02:23:32.319Z,0.70
2022-08-17T02:26:32.810Z,0.50
2022-08-17T02:29:42.250Z,0.50
2022-08-17T02:33:09.383Z,0.70
2022-08-17T02:36:02.023Z,0.50
2022-08-17T02:38:44.660Z,0.80
2022-08-17T02:41:21.373Z,0.60
2022-08-17T02:43:34.725Z,0.60
2022-08-17T02:46:20.716Z,0.70
2022-08-17T02:49:37.182Z,0.60
2022-08-17T02:52:43.139Z,0.50
2022-08-17T02:56:00.634Z,0.70
2022-08-17T02:58:35.486Z,0.50
2022-08-17T03:01:43.126Z,0.70
2022-08-17T03:04:35.190Z,0.50
2022-08-17T03:07:21.767Z,0.60
2022-08-17T03:10:20.759Z,0.80
2022-08-17T03:13:05.906Z,0.60
2022-08-17T03:15:43.866Z,0.50
2022-08-17T03:18:06.811Z,0.50
2022-08-17T03:21:06.731Z,1.10
2022-08-17T03:23:34.831Z,0.50
2022-08-17T03:26:30.641Z,0.50
2022-08-17T03:29:36.716Z,0.60
2022-08-17T03:32:21.562Z,0.50
2022-08-17T03:35:21.950Z,0.70
2022-08-17T03:38:29.000Z,0.50
2022-08-17T03:41:28.203Z,0.80
2022-08-17T03:43:49.183Z,1.00
2022-08-17T03:46:35.597Z,1.10
2022-08-17T03:49:35.082Z,0.80
2022-08-17T03:52:12.280Z,0.70
2022-08-17T03:54:43.106Z,0.90
2022-08-17T03:57:27.154Z,0.80
2022-08-17T03:59:39.063Z,0.70
2022-08-17T04:02:26.635Z,0.60
2022-08-17T04:04:43.871Z,0.60
2022-08-17T04:07:32.151Z,0.90
2022-08-17T04:10:00.413Z,1.00
2022-08-17T04:12:32.683Z,0.70
2022-08-17T04:15:38.618Z,0.90
2022-08-17T04:18:11.083Z,0.50
2022-08-17T04:21:05.679Z,0.90
2022-08-17T04:23:45.964Z,0.70
2022-08-17T04:26:53.379Z,1.00
2022-08-17T04:29:13.480Z,0.90
2022-08-17T04:32:58.621Z,0.70
2022-08-17T04:35:37.145Z,0.70
2022-08-17T04:38:07.324Z,0.60
2022-08-17T04:41:13.345Z,0.80
2022-08-17T04:43:47.462Z,1.10
2022-08-17T04:46:10.708Z,0.80
2022-08-17T04:48:55.013Z,0.90
2022-08-17T04:51:08.417Z,1.10
2022-08-17T04:53:32.421Z,1.10
2022-08-17T04:56:16.916Z,0.90
2022-08-17T04:58:54.964Z,1.10
2022-08-17T05:01:28.247Z,0.90
2022-08-17T05:03:49.612Z,1.20
2022-08-17T05:06:16.308Z,1.20
2022-08-17T05:08:35.924Z,0.90
2022-08-17T05:11:31.282Z,0.90
2022-08-17T05:13:46.346Z,1.00
2022-08-17T05:16:20.951Z,1.00
2022-08-17T05:18:49.970Z,0.90
2022-08-17T05:21:06.778Z,1.00
2022-08-17T05:24:10.994Z,1.10
2022-08-17T05:27:35.117Z,1.20
2022-08-17T05:29:52.013Z,1.40
2022-08-17T05:32:40.507Z,1.20
2022-08-17T05:35:01.416Z,0.80
2022-08-17T05:37:36.613Z,1.20
2022-08-17T05:40:09.100Z,1.10
2022-08-17T05:42:30.537Z,1.40
2022-08-17T05:44:45.985Z,1.50
2022-08-17T05:47:06.408Z,1.10
2022-08-17T05:49:43.958Z,1.00
2022-08-17T05:52:41.185Z,1.10
2022-08-17T05:55:13.852Z,1.10
2022-08-17T05:57:42.125Z,1.00
2022-08-17T06:00:12.052Z,1.50
2022-08-17T06:03:19.609Z,1.50
2022-08-17T06:06:42.192Z,1.10
2022-08-17T06:12:22.587Z,1.50
2022-08-17T06:15:27.193Z,1.10
2022-08-17T06:17:42.523Z,1.20
2022-08-17T06:20:37.605Z,1.10
2022-08-17T06:23:01.205Z,1.30
2022-08-17T06:26:06.174Z,1.30
2022-08-17T06:28:49.049Z,1.20
2022-08-17T06:31:24.041Z,1.10
2022-08-17T06:34:05.364Z,1.00
2022-08-17T06:36:48.762Z,1.40
2022-08-17T06:39:29.221Z,1.50
2022-08-17T06:42:55.042Z,1.10
2022-08-17T06:45:45.073Z,1.20
2022-08-17T06:48:16.325Z,1.30
2022-08-17T06:51:27.220Z,1.00
2022-08-17T06:54:33.951Z,1.00
2022-08-17T06:57:17.660Z,0.90
2022-08-17T06:59:57.628Z,1.40
2022-08-17T07:02:29.184Z,1.10
2022-08-17T07:05:22.407Z,1.40
2022-08-17T07:08:17.627Z,1.30
2022-08-17T07:11:05.157Z,1.20
2022-08-17T07:14:17.292Z,1.20
2022-08-17T07:17:10.441Z,1.10
2022-08-17T07:19:44.498Z,1.30
2022-08-17T07:22:57.693Z,1.10
2022-08-17T07:25:23.471Z,1.30
2022-08-17T07:28:19.188Z,1.10
2022-08-17T07:31:08.995Z,1.60
2022-08-17T07:33:39.366Z,1.20
2022-08-17T07:36:02.774Z,1.10
2022-08-17T07:38:49.648Z,1.70
2022-08-17T07:41:07.575Z,1.50
2022-08-17T07:44:15.282Z,1.10
2022-08-17T07:47:11.528Z,1.30
2022-08-17T07:49:49.097Z,1.10
2022-08-17T07:52:50.259Z,1.20
2022-08-17T07:55:44.777Z,1.30
2022-08-17T07:58:03.306Z,1.10
2022-08-17T08:00:29.148Z,1.20
2022-08-17T08:02:50.850Z,1.10
2022-08-17T08:06:00.329Z,1.10
2022-08-17T08:08:50.093Z,1.00
2022-08-17T08:11:44.420Z,1.20
2022-08-17T08:14:28.904Z,1.10
2022-08-17T08:17:05.854Z,1.30
2022-08-17T08:19:45.863Z,1.40
2022-08-17T08:22:59.060Z,1.30
2022-08-17T08:25:53.344Z,1.10
2022-08-17T08:28:12.629Z,1.40
2022-08-17T08:31:00.410Z,1.00
2022-08-17T08:34:49.732Z,1.40
2022-08-17T08:37:42.990Z,2.20
2022-08-17T08:40:32.414Z,1.20
2022-08-17T08:43:18.866Z,1.30
2022-08-17T08:46:25.997Z,1.70
2022-08-17T08:49:12.364Z,1.30
2022-08-17T08:52:22.251Z,1.40
2022-08-17T08:55:34.169Z,1.50
2022-08-17T08:58:31.789Z,1.30
2022-08-17T09:01:01.886Z,1.50
2022-08-17T09:04:06.721Z,1.40
2022-08-17T09:06:59.893Z,1.30
2022-08-17T09:09:48.081Z,1.80
2022-08-17T09:12:38.782Z,1.40
2022-08-17T09:15:33.828Z,1.50
2022-08-17T09:19:03.478Z,1.10
2022-08-17T09:21:50.265Z,1.40
2022-08-17T09:24:55.702Z,1.30
2022-08-17T09:28:21.231Z,1.70
2022-08-17T09:31:17.079Z,1.30
2022-08-17T09:33:44.620Z,1.60
2022-08-17T09:36:20.562Z,1.70
2022-08-17T09:39:35.706Z,1.60
2022-08-17T09:42:46.204Z,1.40
2022-08-17T09:46:13.397Z,1.90
2022-08-17T09:49:25.666Z,1.70
2022-08-17T09:52:49.751Z,1.70
2022-08-17T09:55:41.274Z,1.90
2022-08-17T09:58:41.588Z,1.70
2022-08-17T10:01:46.543Z,1.70
2022-08-17T10:04:48.555Z,1.60
2022-08-17T10:08:08.225Z,1.70
2022-08-17T10:10:38.610Z,1.90
2022-08-17T10:13:39.258Z,1.50
2022-08-17T10:16:49.125Z,1.80
2022-08-17T10:19:49.162Z,1.60
2022-08-17T10:22:54.771Z,1.80
2022-08-17T10:25:56.189Z,1.50
2022-08-17T10:28:57.826Z,1.40
2022-08-17T10:32:04.481Z,1.40
2022-08-17T10:35:07.511Z,1.30
2022-08-17T10:37:58.195Z,1.70
2022-08-17T10:40:58.340Z,1.80
2022-08-17T10:44:37.452Z,1.60
2022-08-17T10:47:28.165Z,2.10
2022-08-17T10:49:42.814Z,1.30
2022-08-17T10:52:11.251Z,2.20
2022-08-17T10:54:27.004Z,1.70
2022-08-17T10:56:55.222Z,1.50
2022-08-17T10:59:37.617Z,2.00
2022-08-17T11:02:59.459Z,1.80
2022-08-17T11:06:15.838Z,1.60
2022-08-17T11:09:21.759Z,2.00
2022-08-17T11:11:52.349Z,1.70
2022-08-17T11:15:09.473Z,2.20
2022-08-17T11:17:52.032Z,1.70
2022-08-17T11:20:41.623Z,1.40
2022-08-17T11:24:15.985Z,1.80
2022-08-17T11:27:33.357Z,1.60
2022-08-17T11:30:39.634Z,1.60
2022-08-17T11:33:46.470Z,2.60
2022-08-17T11:36:38.197Z,2.90
2022-08-17T11:39:16.859Z,2.90
2022-08-17T11:42:50.395Z,2.10
2022-08-17T11:46:17.478Z,2.20
2022-08-17T11:49:28.658Z,1.80
2022-08-17T11:52:24.806Z,1.80
2022-08-17T11:55:03.617Z,1.50
2022-08-17T11:58:38.101Z,1.60
2022-08-17T12:01:29.202Z,1.90
2022-08-17T12:04:20.673Z,1.80
2022-08-17T12:07:41.245Z,2.20
2022-08-17T12:10:12.563Z,1.80
2022-08-17T12:13:01.106Z,1.70
2022-08-17T12:15:51.887Z,2.10
2022-08-17T12:18:44.744Z,1.80
2022-08-17T12:21:59.911Z,2.10
2022-08-17T12:25:17.143Z,1.70
2022-08-17T12:28:06.479Z,1.80
2022-08-17T12:30:56.570Z,1.70
2022-08-17T12:33:29.352Z,1.50
2022-08-17T12:35:57.512Z,2.10
2022-08-17T12:39:14.419Z,2.00
2022-08-17T12:42:30.620Z,1.70
2022-08-17T12:45:18.286Z,1.80
2022-08-17T12:47:59.690Z,1.80
2022-08-17T12:50:39.628Z,2.00
2022-08-17T12:53:30.684Z,2.50
2022-08-17T12:56:16.092Z,2.20
2022-08-17T12:58:54.539Z,2.40
2022-08-17T13:02:16.836Z,2.30
2022-08-17T13:05:10.531Z,2.10
2022-08-17T13:08:33.855Z,1.70
2022-08-17T13:10:57.692Z,1.90
2022-08-17T13:13:35.158Z,2.10
2022-08-17T13:16:43.811Z,1.80
2022-08-17T13:19:39.945Z,1.80
2022-08-17T13:22:44.400Z,2.00
2022-08-17T13:25:54.143Z,1.80
2022-08-17T13:28:36.538Z,2.60
2022-08-17T13:32:21.669Z,2.20
2022-08-17T13:35:15.274Z,2.60
2022-08-17T13:38:28.711Z,2.70
2022-08-17T13:40:59.601Z,2.40
2022-08-17T13:44:09.531Z,2.40
2022-08-17T13:46:42.779Z,2.10
2022-08-17T13:49:50.192Z,2.50
2022-08-17T13:52:40.381Z,2.60
2022-08-17T13:55:43.696Z,2.40
2022-08-17T13:58:45.019Z,2.00
2022-08-17T14:01:16.908Z,1.80
2022-08-17T14:03:36.335Z,2.50
2022-08-17T14:06:11.361Z,2.10
2022-08-17T14:09:12.447Z,2.20
2022-08-17T14:12:20.310Z,2.40
2022-08-17T14:14:56.594Z,1.80
2022-08-17T14:17:38.122Z,2.40
2022-08-17T14:19:52.657Z,2.40
2022-08-17T14:22:45.476Z,2.90
2022-08-17T14:25:31.787Z,2.90
2022-08-17T14:28:01.686Z,2.40
2022-08-17T14:30:52.797Z,2.20
2022-08-17T14:33:39.795Z,2.40
2022-08-17T14:36:20.712Z,2.70
2022-08-17T14:39:04.371Z,2.40
2022-08-17T14:41:54.329Z,2.20
2022-08-17T14:44:20.633Z,2.30
2022-08-17T14:46:36.289Z,2.30
2022-08-17T14:49:05.581Z,2.20
2022-08-17T14:52:23.159Z,2.00
2022-08-17T14:55:30.054Z,2.00
2022-08-17T14:58:23.606Z,2.20
2022-08-17T15:01:20.906Z,1.90
2022-08-17T15:03:55.035Z,2.20
2022-08-17T15:06:21.094Z,1.80
2022-08-17T15:09:15.722Z,1.70
2022-08-17T15:12:05.398Z,2.10
2022-08-17T15:15:13.098Z,1.70
2022-08-17T15:17:45.941Z,1.50
2022-08-17T15:20:14.742Z,1.90
2022-08-17T15:22:59.960Z,1.90
2022-08-17T15:26:27.133Z,1.30
2022-08-17T15:29:31.793Z,1.40
2022-08-17T15:31:52.102Z,1.40
2022-08-17T15:34:08.738Z,1.60
2022-08-17T15:37:25.964Z,1.10
2022-08-17T15:39:35.797Z,1.40
2022-08-17T15:41:58.393Z,1.60
2022-08-17T15:44:44.552Z,1.50
2022-08-17T15:47:23.185Z,1.40
2022-08-17T15:49:40.071Z,1.00
2022-08-17T15:51:58.592Z,1.80
2022-08-17T15:54:34.603Z,1.30
2022-08-17T15:57:03.270Z,1.60
2022-08-17T15:59:59.291Z,1.70
2022-08-17T16:03:46.050Z,1.50
2022-08-17T16:05:52.582Z,1.60
2022-08-17T16:08:21.254Z,1.30
2022-08-17T16:10:41.438Z,1.60
2022-08-17T16:13:11.671Z,1.50
2022-08-17T16:15:57.074Z,1.30
2022-08-17T16:18:16.020Z,1.70
2022-08-17T16:20:44.473Z,1.40
2022-08-17T16:23:18.457Z,1.70
2022-08-17T16:25:52.946Z,1.60
2022-08-17T16:28:35.951Z,1.40
2022-08-17T16:30:59.246Z,1.30
2022-08-17T16:33:56.897Z,1.60
2022-08-17T16:36:25.408Z,1.50
2022-08-17T16:38:32.224Z,1.60
2022-08-17T16:40:39.601Z,1.50
2022-08-17T16:42:49.531Z,1.10
2022-08-17T16:44:58.666Z,1.60
2022-08-17T16:47:11.803Z,1.60
2022-08-17T16:49:38.073Z,2.30
2022-08-17T16:51:49.471Z,1.50
2022-08-17T16:54:07.637Z,1.20
2022-08-17T16:56:36.144Z,1.40
2022-08-17T16:58:47.010Z,1.60
2022-08-17T17:01:00.549Z,1.00
2022-08-17T17:03:19.572Z,1.10
2022-08-17T17:06:06.362Z,1.60
2022-08-17T17:08:31.414Z,1.30
2022-08-17T17:10:46.098Z,1.60
2022-08-17T17:13:02.457Z,1.40
2022-08-17T17:15:12.589Z,1.40
2022-08-17T17:17:53.704Z,1.30
2022-08-17T17:20:23.881Z,1.60
2022-08-17T17:22:49.382Z,1.30
2022-08-17T17:25:28.464Z,1.60
2022-08-17T17:28:27.515Z,1.50
2022-08-17T17:31:27.365Z,1.50
2022-08-17T17:33:47.787Z,1.70
2022-08-17T17:36:08.009Z,1.60
2022-08-17T17:38:22.563Z,1.70
2022-08-17T17:40:47.293Z,1.40
2022-08-17T17:43:09.257Z,1.40
2022-08-17T17:45:33.098Z,1.40
2022-08-17T17:47:42.721Z,1.50
2022-08-17T17:49:57.101Z,1.40
2022-08-17T17:52:38.410Z,1.40
2022-08-17T17:55:03.514Z,1.60
2022-08-17T17:57:32.836Z,1.50
2022-08-17T17:59:46.161Z,1.20
2022-08-17T18:02:51.990Z,1.40
2022-08-17T18:05:15.053Z,1.40
2022-08-17T18:07:48.767Z,1.40
2022-08-17T18:10:29.302Z,1.20
2022-08-17T18:13:09.362Z,1.40
2022-08-17T18:15:52.376Z,1.60
2022-08-17T18:18:38.845Z,1.20
2022-08-17T18:21:21.625Z,1.30
2022-08-17T18:23:41.171Z,1.90
2022-08-17T18:25:51.543Z,1.00
2022-08-17T18:28:23.344Z,1.30
2022-08-17T18:30:58.247Z,1.30
2022-08-17T18:33:25.782Z,1.10
2022-08-17T18:35:58.873Z,1.30
2022-08-17T18:38:41.202Z,1.10
2022-08-17T18:41:27.287Z,1.20
2022-08-17T18:43:53.823Z,1.30
2022-08-17T18:46:36.430Z,1.30
2022-08-17T18:49:32.970Z,1.20
2022-08-17T18:51:44.214Z,1.10
2022-08-17T18:54:11.103Z,1.00
2022-08-17T18:56:27.688Z,1.10
2022-08-17T18:59:03.895Z,1.30
2022-08-17T19:01:22.222Z,1.30
2022-08-17T19:04:43.234Z,1.20
2022-08-17T19:07:17.252Z,1.00
2022-08-17T19:10:46.881Z,1.30
2022-08-17T19:13:39.229Z,1.10
2022-08-17T19:16:11.841Z,1.30
2022-08-17T19:18:27.753Z,1.30
2022-08-17T19:21:04.578Z,1.40
2022-08-17T19:23:32.431Z,1.30
2022-08-17T19:26:50.531Z,1.30
2022-08-17T19:29:05.295Z,1.50
2022-08-17T19:31:26.015Z,1.20
2022-08-17T19:33:39.983Z,1.10
2022-08-17T19:36:15.033Z,1.20
2022-08-17T19:38:45.783Z,1.50
2022-08-17T19:41:20.656Z,0.90
2022-08-17T19:43:35.935Z,1.20
2022-08-17T19:46:26.313Z,1.20
2022-08-17T19:49:48.789Z,1.20
2022-08-17T19:52:24.154Z,1.40
2022-08-17T19:54:44.956Z,1.30
2022-08-17T19:57:33.084Z,1.30
2022-08-17T20:00:03.569Z,1.50
2022-08-17T20:02:30.419Z,1.20
2022-08-17T20:05:11.235Z,1.70
2022-08-17T20:07:28.040Z,1.20
2022-08-17T20:09:51.167Z,1.10
2022-08-17T20:12:09.420Z,1.30
2022-08-17T20:14:34.703Z,1.00
2022-08-17T20:16:45.132Z,1.40
2022-08-17T20:19:00.672Z,1.00
2022-08-17T20:21:48.275Z,1.00
2022-08-17T20:24:44.501Z,1.20
2022-08-17T20:27:31.634Z,1.10
2022-08-17T20:30:02.436Z,1.80
2022-08-17T20:33:19.030Z,1.70
2022-08-17T20:35:37.401Z,1.40
2022-08-17T20:38:03.659Z,1.40
2022-08-17T20:40:54.447Z,1.30
2022-08-17T20:43:26.214Z,1.80
2022-08-17T20:46:27.014Z,1.40
2022-08-17T20:49:03.207Z,1.30
2022-08-17T20:51:29.135Z,1.30
2022-08-17T20:53:55.658Z,1.30
2022-08-17T20:56:06.311Z,1.30
2022-08-17T20:58:24.940Z,1.70
2022-08-17T21:01:28.777Z,1.60
2022-08-17T21:03:52.177Z,1.40
2022-08-17T21:06:04.207Z,1.30
2022-08-17T21:08:34.380Z,1.20
2022-08-17T21:10:54.353Z,1.30
2022-08-17T21:13:43.598Z,1.10
2022-08-17T21:16:49.051Z,1.20
2022-08-17T21:19:48.982Z,1.30
2022-08-17T21:22:11.304Z,1.30
2022-08-17T21:24:44.513Z,1.20
2022-08-17T21:27:36.501Z,1.70
2022-08-17T21:30:41.018Z,1.10
2022-08-17T21:33:44.976Z,1.10
2022-08-17T21:36:40.076Z,1.00
2022-08-17T21:39:50.427Z,1.80
2022-08-17T21:41:59.579Z,1.40
2022-08-17T21:44:30.550Z,1.40
2022-08-17T21:47:15.968Z,1.30
2022-08-17T21:50:23.785Z,1.30
2022-08-17T21:52:35.175Z,1.20
2022-08-17T21:54:50.312Z,1.10
2022-08-17T21:57:12.025Z,1.10
2022-08-17T21:59:53.492Z,1.00
2022-08-17T22:02:38.918Z,1.30
2022-08-17T22:05:10.797Z,1.30
2022-08-17T22:07:38.033Z,1.20
2022-08-17T22:10:57.198Z,1.00
2022-08-17T22:13:17.141Z,1.10
2022-08-17T22:15:30.002Z,1.30
2022-08-17T22:17:51.001Z,1.40
2022-08-17T22:20:10.779Z,1.10
2022-08-17T22:22:58.087Z,1.10
2022-08-17T22:25:09.902Z,1.30
2022-08-17T22:27:20.550Z,1.40
2022-08-17T22:32:35.490Z,1.20
2022-08-17T22:35:28.126Z,1.30
2022-08-17T22:38:04.047Z,1.20
2022-08-17T22:40:56.993Z,1.20
2022-08-17T22:43:26.423Z,1.00
2022-08-17T22:45:34.927Z,0.90
2022-08-17T22:47:50.043Z,1.30
2022-08-17T22:50:07.181Z,1.40
2022-08-17T22:52:57.381Z,1.10
2022-08-17T22:55:28.513Z,1.30
2022-08-17T22:58:17.033Z,1.20
2022-08-17T23:00:59.536Z,1.10
2022-08-17T23:03:54.181Z,1.50
2022-08-17T23:06:47.895Z,1.20
2022-08-17T23:09:05.235Z,1.10
2022-08-17T23:11:36.980Z,1.00
2022-08-17T23:14:00.332Z,1.30
2022-08-17T23:16:32.272Z,1.20
2022-08-17T23:18:59.395Z,1.00
2022-08-17T23:21:33.198Z,0.90
2022-08-17T23:23:44.826Z,1.20
2022-08-17T23:26:13.050Z,1.50
2022-08-17T23:28:23.524Z,1.20
2022-08-17T23:30:45.778Z,1.30
2022-08-17T23:33:09.603Z,1.10
2022-08-17T23:35:17.944Z,1.10
2022-08-17T23:37:28.763Z,1.20
2022-08-17T23:39:39.454Z,1.10
2022-08-17T23:41:54.836Z,1.80
2022-08-17T23:44:08.959Z,1.30
2022-08-17T23:46:23.038Z,0.90
2022-08-17T23:48:36.919Z,1.10
2022-08-17T23:50:55.562Z,1.00
2022-08-17T23:53:07.181Z,1.30
2022-08-17T23:55:17.882Z,1.00
2022-08-17T23:57:33.683Z,1.00
2022-08-17T23:59:46.959Z,1.10
